Terminal Aerodrome Forecast
Issued by NWS

Home | Current Version | Previous Version | Graphics & Text | Print | Product List | Glossary On
Versions: 1 2 3 4 5 6 7 8 9 10 11 12 13 14 15 16 17 18 19 20 21 22 23 24 25 26 27 28 29 30 31 32 33 34 35 36 37 38 39 40 41 42 43 44 45 46 47
732
FTUS43 KGRB 222101 AAA
TAFRHI
TAF AMD
KRHI 222101Z 2221/2318 30004KT P6SM OVC003
     FM230100 31002KT 3SM BR OVC003
     FM230500 VRB03KT 1/4SM FG OVC002
     FM231500 32004KT 1SM BR OVC003
     FM231700 33005KT 3SM BR OVC006=

USA.gov is the U.S. government's official web portal to all federal, state and local government web resources and services.